sensor_id;sensor_type;location;lat;lon;timestamp;P1;durP1;ratioP1;P2;durP2;ratioP2
9076;SDS011;4574;51.072;17.174;2023-12-14T00:02:13;53.50;;;29.07;;
9076;SDS011;4574;51.072;17.174;2023-12-14T00:04:42;56.20;;;29.00;;
9076;SDS011;4574;51.072;17.174;2023-12-14T00:07:11;53.33;;;28.63;;
9076;SDS011;4574;51.072;17.174;2023-12-14T00:09:41;53.83;;;28.90;;
9076;SDS011;4574;51.072;17.174;2023-12-14T00:12:09;52.23;;;27.77;;
9076;SDS011;4574;51.072;17.174;2023-12-14T00:14:39;62.37;;;29.63;;
9076;SDS011;4574;51.072;17.174;2023-12-14T00:17:08;50.80;;;28.70;;
9076;SDS011;4574;51.072;17.174;2023-12-14T00:19:37;56.87;;;28.70;;
9076;SDS011;4574;51.072;17.174;2023-12-14T00:22:05;60.13;;;30.23;;
9076;SDS011;4574;51.072;17.174;2023-12-14T00:24:34;58.00;;;29.80;;
9076;SDS011;4574;51.072;17.174;2023-12-14T00:27:03;54.90;;;30.00;;
9076;SDS011;4574;51.072;17.174;2023-12-14T00:29:31;59.20;;;30.40;;
9076;SDS011;4574;51.072;17.174;2023-12-14T00:32:02;61.67;;;31.30;;
9076;SDS011;4574;51.072;17.174;2023-12-14T00:34:29;61.27;;;32.80;;
9076;SDS011;4574;51.072;17.174;2023-12-14T00:36:59;59.80;;;32.00;;
9076;SDS011;4574;51.072;17.174;2023-12-14T00:39:27;59.00;;;31.97;;
9076;SDS011;4574;51.072;17.174;2023-12-14T00:41:56;64.83;;;32.77;;
9076;SDS011;4574;51.072;17.174;2023-12-14T00:44:24;60.67;;;31.93;;
9076;SDS011;4574;51.072;17.174;2023-12-14T00:46:53;60.23;;;32.17;;
9076;SDS011;4574;51.072;17.174;2023-12-14T00:49:23;67.77;;;32.53;;
9076;SDS011;4574;51.072;17.174;2023-12-14T00:51:54;64.80;;;32.27;;
9076;SDS011;4574;51.072;17.174;2023-12-14T00:54:23;59.47;;;31.57;;
9076;SDS011;4574;51.072;17.174;2023-12-14T00:56:51;62.57;;;31.10;;
9076;SDS011;4574;51.072;17.174;2023-12-14T00:59:20;63.67;;;31.80;;
9076;SDS011;4574;51.072;17.174;2023-12-14T01:01:49;60.97;;;29.77;;
9076;SDS011;4574;51.072;17.174;2023-12-14T01:04:17;57.23;;;31.63;;
9076;SDS011;4574;51.072;17.174;2023-12-14T01:06:48;58.93;;;30.87;;
9076;SDS011;4574;51.072;17.174;2023-12-14T01:09:16;64.57;;;32.57;;
9076;SDS011;4574;51.072;17.174;2023-12-14T01:11:45;69.47;;;33.20;;
9076;SDS011;4574;51.072;17.174;2023-12-14T01:14:13;64.80;;;33.20;;
9076;SDS011;4574;51.072;17.174;2023-12-14T01:16:42;65.10;;;34.40;;
9076;SDS011;4574;51.072;17.174;2023-12-14T01:19:11;69.13;;;35.43;;
9076;SDS011;4574;51.072;17.174;2023-12-14T01:21:39;67.93;;;36.20;;
9076;SDS011;4574;51.072;17.174;2023-12-14T01:24:09;71.30;;;41.40;;
9076;SDS011;4574;51.072;17.174;2023-12-14T01:26:38;71.07;;;39.37;;
9076;SDS011;4574;51.072;17.174;2023-12-14T01:29:06;72.43;;;37.10;;
9076;SDS011;4574;51.072;17.174;2023-12-14T01:31:35;70.03;;;37.07;;
9076;SDS011;4574;51.072;17.174;2023-12-14T01:34:04;69.67;;;35.83;;
9076;SDS011;4574;51.072;17.174;2023-12-14T01:36:33;62.37;;;32.27;;
9076;SDS011;4574;51.072;17.174;2023-12-14T01:39:01;63.90;;;35.00;;
9076;SDS011;4574;51.072;17.174;2023-12-14T01:41:31;59.97;;;32.00;;
9076;SDS011;4574;51.072;17.174;2023-12-14T01:44:00;53.20;;;30.03;;
9076;SDS011;4574;51.072;17.174;2023-12-14T01:46:29;64.27;;;32.33;;
9076;SDS011;4574;51.072;17.174;2023-12-14T01:48:57;59.10;;;30.67;;
9076;SDS011;4574;51.072;17.174;2023-12-14T01:51:26;57.57;;;29.57;;
9076;SDS011;4574;51.072;17.174;2023-12-14T01:53:54;63.33;;;33.10;;
9076;SDS011;4574;51.072;17.174;2023-12-14T01:56:23;67.47;;;33.63;;
9076;SDS011;4574;51.072;17.174;2023-12-14T01:58:53;60.77;;;32.40;;
9076;SDS011;4574;51.072;17.174;2023-12-14T02:01:23;58.37;;;30.87;;
9076;SDS011;4574;51.072;17.174;2023-12-14T02:03:58;57.13;;;30.70;;
9076;SDS011;4574;51.072;17.174;2023-12-14T02:06:26;55.17;;;29.73;;
9076;SDS011;4574;51.072;17.174;2023-12-14T02:08:55;60.70;;;30.93;;
9076;SDS011;4574;51.072;17.174;2023-12-14T02:11:23;52.77;;;30.43;;
9076;SDS011;4574;51.072;17.174;2023-12-14T02:13:54;49.30;;;29.10;;
9076;SDS011;4574;51.072;17.174;2023-12-14T02:16:22;53.20;;;29.00;;
9076;SDS011;4574;51.072;17.174;2023-12-14T02:18:51;53.77;;;29.00;;
9076;SDS011;4574;51.072;17.174;2023-12-14T02:21:19;49.13;;;28.70;;
9076;SDS011;4574;51.072;17.174;2023-12-14T02:23:49;46.87;;;27.37;;
9076;SDS011;4574;51.072;17.174;2023-12-14T02:26:18;49.67;;;27.70;;
9076;SDS011;4574;51.072;17.174;2023-12-14T02:28:47;56.27;;;29.20;;
9076;SDS011;4574;51.072;17.174;2023-12-14T02:31:17;53.23;;;28.90;;
9076;SDS011;4574;51.072;17.174;2023-12-14T02:33:46;51.90;;;28.27;;
9076;SDS011;4574;51.072;17.174;2023-12-14T02:36:14;50.97;;;29.20;;
9076;SDS011;4574;51.072;17.174;2023-12-14T02:38:43;53.17;;;29.40;;
9076;SDS011;4574;51.072;17.174;2023-12-14T02:41:13;53.33;;;29.73;;
9076;SDS011;4574;51.072;17.174;2023-12-14T02:43:42;52.40;;;28.80;;
9076;SDS011;4574;51.072;17.174;2023-12-14T02:46:10;51.50;;;27.70;;
9076;SDS011;4574;51.072;17.174;2023-12-14T02:48:42;48.47;;;27.73;;
9076;SDS011;4574;51.072;17.174;2023-12-14T02:51:13;50.50;;;27.50;;
9076;SDS011;4574;51.072;17.174;2023-12-14T02:53:42;44.00;;;25.03;;
9076;SDS011;4574;51.072;17.174;2023-12-14T02:56:11;49.73;;;28.10;;
9076;SDS011;4574;51.072;17.174;2023-12-14T02:58:41;44.17;;;26.90;;
9076;SDS011;4574;51.072;17.174;2023-12-14T03:01:09;46.13;;;26.90;;
9076;SDS011;4574;51.072;17.174;2023-12-14T03:03:38;43.07;;;25.60;;
9076;SDS011;4574;51.072;17.174;2023-12-14T03:06:07;47.73;;;25.70;;
9076;SDS011;4574;51.072;17.174;2023-12-14T03:08:36;50.87;;;26.60;;
9076;SDS011;4574;51.072;17.174;2023-12-14T03:11:04;46.50;;;26.17;;
9076;SDS011;4574;51.072;17.174;2023-12-14T03:13:34;46.37;;;25.97;;
9076;SDS011;4574;51.072;17.174;2023-12-14T03:16:03;46.00;;;26.00;;
9076;SDS011;4574;51.072;17.174;2023-12-14T03:18:32;47.17;;;24.87;;
9076;SDS011;4574;51.072;17.174;2023-12-14T03:21:01;48.67;;;27.13;;
9076;SDS011;4574;51.072;17.174;2023-12-14T03:23:29;50.47;;;26.50;;
9076;SDS011;4574;51.072;17.174;2023-12-14T03:25:58;54.10;;;27.83;;
9076;SDS011;4574;51.072;17.174;2023-12-14T03:28:27;46.47;;;25.20;;
9076;SDS011;4574;51.072;17.174;2023-12-14T03:30:58;53.13;;;27.10;;
9076;SDS011;4574;51.072;17.174;2023-12-14T03:33:26;46.13;;;26.67;;
9076;SDS011;4574;51.072;17.174;2023-12-14T03:35:55;50.17;;;25.27;;
9076;SDS011;4574;51.072;17.174;2023-12-14T03:38:23;47.93;;;24.47;;
9076;SDS011;4574;51.072;17.174;2023-12-14T03:40:52;46.80;;;25.73;;
9076;SDS011;4574;51.072;17.174;2023-12-14T03:43:20;45.53;;;24.57;;
9076;SDS011;4574;51.072;17.174;2023-12-14T03:45:49;48.93;;;25.27;;
9076;SDS011;4574;51.072;17.174;2023-12-14T03:48:19;50.17;;;26.47;;
9076;SDS011;4574;51.072;17.174;2023-12-14T03:50:48;44.27;;;25.30;;
9076;SDS011;4574;51.072;17.174;2023-12-14T03:53:17;51.63;;;27.47;;
9076;SDS011;4574;51.072;17.174;2023-12-14T03:55:46;47.77;;;26.77;;
9076;SDS011;4574;51.072;17.174;2023-12-14T03:58:15;50.33;;;25.80;;
9076;SDS011;4574;51.072;17.174;2023-12-14T04:00:44;45.67;;;24.27;;
9076;SDS011;4574;51.072;17.174;2023-12-14T04:03:13;50.50;;;24.57;;
9076;SDS011;4574;51.072;17.174;2023-12-14T04:05:43;45.90;;;24.33;;
9076;SDS011;4574;51.072;17.174;2023-12-14T04:08:12;45.10;;;24.53;;
9076;SDS011;4574;51.072;17.174;2023-12-14T04:10:40;51.37;;;24.43;;
9076;SDS011;4574;51.072;17.174;2023-12-14T04:13:10;52.13;;;26.57;;
9076;SDS011;4574;51.072;17.174;2023-12-14T04:15:38;50.40;;;24.53;;
9076;SDS011;4574;51.072;17.174;2023-12-14T04:18:07;51.00;;;24.57;;
9076;SDS011;4574;51.072;17.174;2023-12-14T04:20:36;46.63;;;24.83;;
9076;SDS011;4574;51.072;17.174;2023-12-14T04:23:06;50.90;;;25.20;;
9076;SDS011;4574;51.072;17.174;2023-12-14T04:25:35;52.17;;;27.17;;
9076;SDS011;4574;51.072;17.174;2023-12-14T04:28:03;48.90;;;24.83;;
9076;SDS011;4574;51.072;17.174;2023-12-14T04:30:32;44.43;;;23.47;;
9076;SDS011;4574;51.072;17.174;2023-12-14T04:33:01;42.90;;;21.97;;
9076;SDS011;4574;51.072;17.174;2023-12-14T04:35:29;48.63;;;23.60;;
9076;SDS011;4574;51.072;17.174;2023-12-14T04:38:03;41.97;;;23.20;;
9076;SDS011;4574;51.072;17.174;2023-12-14T04:40:33;44.23;;;23.53;;
9076;SDS011;4574;51.072;17.174;2023-12-14T04:43:02;42.83;;;22.87;;
9076;SDS011;4574;51.072;17.174;2023-12-14T04:45:30;43.73;;;24.43;;
9076;SDS011;4574;51.072;17.174;2023-12-14T04:47:59;43.00;;;23.67;;
9076;SDS011;4574;51.072;17.174;2023-12-14T04:50:27;45.20;;;23.60;;
9076;SDS011;4574;51.072;17.174;2023-12-14T04:52:56;45.70;;;23.33;;
9076;SDS011;4574;51.072;17.174;2023-12-14T04:55:25;46.20;;;24.20;;
9076;SDS011;4574;51.072;17.174;2023-12-14T04:57:55;49.10;;;24.93;;
9076;SDS011;4574;51.072;17.174;2023-12-14T05:00:24;47.60;;;24.50;;
9076;SDS011;4574;51.072;17.174;2023-12-14T05:02:53;42.00;;;22.67;;
9076;SDS011;4574;51.072;17.174;2023-12-14T05:05:21;41.87;;;22.27;;
9076;SDS011;4574;51.072;17.174;2023-12-14T05:07:50;43.50;;;24.40;;
9076;SDS011;4574;51.072;17.174;2023-12-14T05:10:19;42.70;;;23.37;;
9076;SDS011;4574;51.072;17.174;2023-12-14T05:12:47;45.37;;;23.50;;
9076;SDS011;4574;51.072;17.174;2023-12-14T05:15:17;43.53;;;23.20;;
9076;SDS011;4574;51.072;17.174;2023-12-14T05:17:46;44.80;;;23.23;;
9076;SDS011;4574;51.072;17.174;2023-12-14T05:20:14;47.40;;;24.90;;
9076;SDS011;4574;51.072;17.174;2023-12-14T05:22:43;42.47;;;22.37;;
9076;SDS011;4574;51.072;17.174;2023-12-14T05:25:12;44.97;;;24.17;;
9076;SDS011;4574;51.072;17.174;2023-12-14T05:27:41;42.17;;;23.47;;
9076;SDS011;4574;51.072;17.174;2023-12-14T05:30:10;43.83;;;23.83;;
9076;SDS011;4574;51.072;17.174;2023-12-14T05:32:40;43.47;;;23.10;;
9076;SDS011;4574;51.072;17.174;2023-12-14T05:35:09;47.70;;;23.93;;
9076;SDS011;4574;51.072;17.174;2023-12-14T05:37:38;44.77;;;22.87;;
9076;SDS011;4574;51.072;17.174;2023-12-14T05:40:09;45.97;;;25.23;;
9076;SDS011;4574;51.072;17.174;2023-12-14T05:42:38;43.60;;;24.33;;
9076;SDS011;4574;51.072;17.174;2023-12-14T05:45:07;46.10;;;24.27;;
9076;SDS011;4574;51.072;17.174;2023-12-14T05:47:38;45.17;;;23.57;;
9076;SDS011;4574;51.072;17.174;2023-12-14T05:50:10;43.43;;;23.57;;
9076;SDS011;4574;51.072;17.174;2023-12-14T05:52:39;44.73;;;24.13;;
9076;SDS011;4574;51.072;17.174;2023-12-14T05:55:08;42.77;;;23.53;;
9076;SDS011;4574;51.072;17.174;2023-12-14T05:57:38;45.90;;;25.37;;
9076;SDS011;4574;51.072;17.174;2023-12-14T06:00:06;44.07;;;22.30;;
9076;SDS011;4574;51.072;17.174;2023-12-14T06:02:36;42.33;;;23.13;;
9076;SDS011;4574;51.072;17.174;2023-12-14T06:05:06;42.37;;;22.43;;
9076;SDS011;4574;51.072;17.174;2023-12-14T06:07:37;44.93;;;24.40;;
9076;SDS011;4574;51.072;17.174;2023-12-14T06:10:06;43.60;;;23.67;;
9076;SDS011;4574;51.072;17.174;2023-12-14T06:12:35;40.77;;;22.00;;
9076;SDS011;4574;51.072;17.174;2023-12-14T06:15:04;41.07;;;22.80;;
9076;SDS011;4574;51.072;17.174;2023-12-14T06:17:34;43.53;;;23.20;;
9076;SDS011;4574;51.072;17.174;2023-12-14T06:20:04;44.37;;;24.23;;
9076;SDS011;4574;51.072;17.174;2023-12-14T06:22:37;46.83;;;23.63;;
9076;SDS011;4574;51.072;17.174;2023-12-14T06:25:05;44.80;;;24.30;;
9076;SDS011;4574;51.072;17.174;2023-12-14T06:27:35;43.60;;;21.57;;
9076;SDS011;4574;51.072;17.174;2023-12-14T06:30:03;41.83;;;22.53;;
9076;SDS011;4574;51.072;17.174;2023-12-14T06:32:33;43.47;;;22.63;;
9076;SDS011;4574;51.072;17.174;2023-12-14T06:35:02;41.37;;;21.50;;
9076;SDS011;4574;51.072;17.174;2023-12-14T06:37:32;43.27;;;22.53;;
9076;SDS011;4574;51.072;17.174;2023-12-14T06:40:02;43.77;;;23.20;;
9076;SDS011;4574;51.072;17.174;2023-12-14T06:42:31;45.83;;;24.00;;
9076;SDS011;4574;51.072;17.174;2023-12-14T06:45:01;44.70;;;22.67;;
9076;SDS011;4574;51.072;17.174;2023-12-14T06:47:30;44.27;;;23.27;;
9076;SDS011;4574;51.072;17.174;2023-12-14T06:49:59;47.13;;;24.20;;
9076;SDS011;4574;51.072;17.174;2023-12-14T06:52:28;44.57;;;23.83;;
9076;SDS011;4574;51.072;17.174;2023-12-14T06:54:57;46.20;;;24.60;;
9076;SDS011;4574;51.072;17.174;2023-12-14T06:57:27;43.80;;;24.27;;
9076;SDS011;4574;51.072;17.174;2023-12-14T06:59:56;45.47;;;22.70;;
9076;SDS011;4574;51.072;17.174;2023-12-14T07:02:25;45.07;;;23.30;;
9076;SDS011;4574;51.072;17.174;2023-12-14T07:04:54;44.27;;;22.50;;
9076;SDS011;4574;51.072;17.174;2023-12-14T07:07:22;52.80;;;25.50;;
9076;SDS011;4574;51.072;17.174;2023-12-14T07:09:51;45.40;;;24.00;;
9076;SDS011;4574;51.072;17.174;2023-12-14T07:12:20;40.97;;;21.27;;
9076;SDS011;4574;51.072;17.174;2023-12-14T07:14:50;40.87;;;21.03;;
9076;SDS011;4574;51.072;17.174;2023-12-14T07:17:18;42.83;;;21.67;;
9076;SDS011;4574;51.072;17.174;2023-12-14T07:19:47;39.13;;;20.40;;
9076;SDS011;4574;51.072;17.174;2023-12-14T07:22:16;37.77;;;20.37;;
9076;SDS011;4574;51.072;17.174;2023-12-14T07:24:44;42.57;;;20.83;;
9076;SDS011;4574;51.072;17.174;2023-12-14T07:27:22;44.97;;;23.93;;
9076;SDS011;4574;51.072;17.174;2023-12-14T07:29:52;50.23;;;27.13;;
9076;SDS011;4574;51.072;17.174;2023-12-14T07:32:20;52.33;;;28.17;;
9076;SDS011;4574;51.072;17.174;2023-12-14T07:34:49;44.87;;;24.83;;
9076;SDS011;4574;51.072;17.174;2023-12-14T07:37:18;47.73;;;21.77;;
9076;SDS011;4574;51.072;17.174;2023-12-14T07:39:47;44.73;;;21.63;;
9076;SDS011;4574;51.072;17.174;2023-12-14T07:42:15;43.53;;;19.87;;
9076;SDS011;4574;51.072;17.174;2023-12-14T07:44:46;41.73;;;21.00;;
9076;SDS011;4574;51.072;17.174;2023-12-14T07:47:16;44.23;;;20.87;;
9076;SDS011;4574;51.072;17.174;2023-12-14T07:49:45;41.77;;;21.40;;
9076;SDS011;4574;51.072;17.174;2023-12-14T07:52:14;47.37;;;23.60;;
9076;SDS011;4574;51.072;17.174;2023-12-14T07:54:43;44.67;;;22.70;;
9076;SDS011;4574;51.072;17.174;2023-12-14T07:57:11;40.67;;;22.40;;
9076;SDS011;4574;51.072;17.174;2023-12-14T07:59:40;48.80;;;23.50;;
9076;SDS011;4574;51.072;17.174;2023-12-14T08:02:09;47.03;;;23.33;;
9076;SDS011;4574;51.072;17.174;2023-12-14T08:04:39;61.17;;;30.73;;
9076;SDS011;4574;51.072;17.174;2023-12-14T08:07:07;63.23;;;29.93;;
9076;SDS011;4574;51.072;17.174;2023-12-14T08:09:38;59.07;;;29.13;;
9076;SDS011;4574;51.072;17.174;2023-12-14T08:12:07;52.30;;;25.90;;
9076;SDS011;4574;51.072;17.174;2023-12-14T08:14:36;52.30;;;24.23;;
9076;SDS011;4574;51.072;17.174;2023-12-14T08:17:09;51.33;;;23.03;;
9076;SDS011;4574;51.072;17.174;2023-12-14T08:19:40;50.63;;;24.57;;
9076;SDS011;4574;51.072;17.174;2023-12-14T08:22:09;56.93;;;25.03;;
9076;SDS011;4574;51.072;17.174;2023-12-14T08:24:39;49.60;;;27.07;;
9076;SDS011;4574;51.072;17.174;2023-12-14T08:27:07;48.03;;;25.70;;
9076;SDS011;4574;51.072;17.174;2023-12-14T08:29:35;48.00;;;25.97;;
9076;SDS011;4574;51.072;17.174;2023-12-14T08:32:05;44.27;;;24.03;;
9076;SDS011;4574;51.072;17.174;2023-12-14T08:34:34;40.40;;;23.47;;
9076;SDS011;4574;51.072;17.174;2023-12-14T08:37:04;43.03;;;23.20;;
9076;SDS011;4574;51.072;17.174;2023-12-14T08:39:33;44.27;;;23.07;;
9076;SDS011;4574;51.072;17.174;2023-12-14T08:42:01;38.63;;;21.97;;
9076;SDS011;4574;51.072;17.174;2023-12-14T08:44:30;35.80;;;21.30;;
9076;SDS011;4574;51.072;17.174;2023-12-14T08:46:59;46.27;;;24.67;;
9076;SDS011;4574;51.072;17.174;2023-12-14T08:49:30;43.93;;;25.00;;
9076;SDS011;4574;51.072;17.174;2023-12-14T08:51:59;48.63;;;26.00;;
9076;SDS011;4574;51.072;17.174;2023-12-14T08:54:29;45.93;;;24.00;;
9076;SDS011;4574;51.072;17.174;2023-12-14T08:56:58;44.40;;;22.87;;
9076;SDS011;4574;51.072;17.174;2023-12-14T08:59:27;43.13;;;20.77;;
9076;SDS011;4574;51.072;17.174;2023-12-14T09:01:56;47.10;;;24.37;;
9076;SDS011;4574;51.072;17.174;2023-12-14T09:04:25;47.80;;;25.00;;
9076;SDS011;4574;51.072;17.174;2023-12-14T09:06:54;45.57;;;22.73;;
9076;SDS011;4574;51.072;17.174;2023-12-14T09:09:22;37.23;;;22.07;;
9076;SDS011;4574;51.072;17.174;2023-12-14T09:11:52;34.97;;;19.87;;
9076;SDS011;4574;51.072;17.174;2023-12-14T09:14:21;33.17;;;19.10;;
9076;SDS011;4574;51.072;17.174;2023-12-14T09:16:49;35.30;;;19.57;;
9076;SDS011;4574;51.072;17.174;2023-12-14T09:19:18;32.77;;;17.80;;
9076;SDS011;4574;51.072;17.174;2023-12-14T09:21:47;31.50;;;18.30;;
9076;SDS011;4574;51.072;17.174;2023-12-14T09:24:15;33.07;;;19.13;;
9076;SDS011;4574;51.072;17.174;2023-12-14T09:26:44;33.43;;;18.40;;
9076;SDS011;4574;51.072;17.174;2023-12-14T09:29:14;27.23;;;16.57;;
9076;SDS011;4574;51.072;17.174;2023-12-14T09:31:43;98.40;;;42.63;;
9076;SDS011;4574;51.072;17.174;2023-12-14T09:34:12;114.03;;;43.27;;
9076;SDS011;4574;51.072;17.174;2023-12-14T09:36:41;92.17;;;36.50;;
9076;SDS011;4574;51.072;17.174;2023-12-14T09:39:10;43.93;;;22.03;;
9076;SDS011;4574;51.072;17.174;2023-12-14T09:41:39;29.73;;;16.63;;
9076;SDS011;4574;51.072;17.174;2023-12-14T09:44:07;25.70;;;16.30;;
9076;SDS011;4574;51.072;17.174;2023-12-14T09:46:38;25.37;;;16.27;;
9076;SDS011;4574;51.072;17.174;2023-12-14T09:49:11;27.03;;;15.80;;
9076;SDS011;4574;51.072;17.174;2023-12-14T09:51:41;29.87;;;17.80;;
9076;SDS011;4574;51.072;17.174;2023-12-14T09:54:10;34.57;;;18.13;;
9076;SDS011;4574;51.072;17.174;2023-12-14T09:56:45;41.43;;;21.40;;
9076;SDS011;4574;51.072;17.174;2023-12-14T09:59:14;30.07;;;18.23;;
9076;SDS011;4574;51.072;17.174;2023-12-14T10:01:45;30.00;;;17.40;;
9076;SDS011;4574;51.072;17.174;2023-12-14T10:04:14;43.80;;;22.07;;
9076;SDS011;4574;51.072;17.174;2023-12-14T10:06:44;55.13;;;24.00;;
9076;SDS011;4574;51.072;17.174;2023-12-14T10:09:22;44.23;;;21.40;;
9076;SDS011;4574;51.072;17.174;2023-12-14T10:11:51;39.53;;;21.03;;
9076;SDS011;4574;51.072;17.174;2023-12-14T10:14:31;37.90;;;19.73;;
9076;SDS011;4574;51.072;17.174;2023-12-14T10:17:10;44.27;;;22.23;;
9076;SDS011;4574;51.072;17.174;2023-12-14T10:19:43;34.07;;;18.43;;
9076;SDS011;4574;51.072;17.174;2023-12-14T10:22:13;32.00;;;16.97;;
9076;SDS011;4574;51.072;17.174;2023-12-14T10:24:44;27.87;;;15.97;;
9076;SDS011;4574;51.072;17.174;2023-12-14T10:27:14;28.20;;;18.03;;
9076;SDS011;4574;51.072;17.174;2023-12-14T10:29:44;22.10;;;13.20;;
9076;SDS011;4574;51.072;17.174;2023-12-14T10:32:14;20.73;;;12.50;;
9076;SDS011;4574;51.072;17.174;2023-12-14T10:34:43;15.07;;;11.23;;
9076;SDS011;4574;51.072;17.174;2023-12-14T10:37:12;19.20;;;11.50;;
9076;SDS011;4574;51.072;17.174;2023-12-14T10:39:42;19.67;;;12.93;;
9076;SDS011;4574;51.072;17.174;2023-12-14T10:42:10;26.83;;;15.77;;
9076;SDS011;4574;51.072;17.174;2023-12-14T10:44:46;26.43;;;15.70;;
9076;SDS011;4574;51.072;17.174;2023-12-14T10:47:23;19.40;;;13.23;;
9076;SDS011;4574;51.072;17.174;2023-12-14T10:49:52;28.83;;;15.73;;
9076;SDS011;4574;51.072;17.174;2023-12-14T10:52:22;27.00;;;14.40;;
9076;SDS011;4574;51.072;17.174;2023-12-14T10:54:53;22.33;;;13.17;;
9076;SDS011;4574;51.072;17.174;2023-12-14T10:57:28;19.33;;;13.10;;
9076;SDS011;4574;51.072;17.174;2023-12-14T11:00:00;24.17;;;13.63;;
9076;SDS011;4574;51.072;17.174;2023-12-14T11:02:30;23.80;;;14.73;;
9076;SDS011;4574;51.072;17.174;2023-12-14T11:05:05;23.33;;;14.10;;
9076;SDS011;4574;51.072;17.174;2023-12-14T11:07:43;18.43;;;12.67;;
9076;SDS011;4574;51.072;17.174;2023-12-14T11:10:13;21.30;;;13.53;;
9076;SDS011;4574;51.072;17.174;2023-12-14T11:12:54;24.50;;;14.40;;
9076;SDS011;4574;51.072;17.174;2023-12-14T11:15:25;21.90;;;14.00;;
9076;SDS011;4574;51.072;17.174;2023-12-14T11:20:55;23.97;;;16.03;;
9076;SDS011;4574;51.072;17.174;2023-12-14T11:23:26;29.50;;;18.60;;
9076;SDS011;4574;51.072;17.174;2023-12-14T11:26:01;28.90;;;16.20;;
9076;SDS011;4574;51.072;17.174;2023-12-14T11:28:32;22.00;;;14.67;;
9076;SDS011;4574;51.072;17.174;2023-12-14T11:31:01;21.43;;;14.80;;
9076;SDS011;4574;51.072;17.174;2023-12-14T11:33:35;23.50;;;14.90;;
9076;SDS011;4574;51.072;17.174;2023-12-14T11:36:10;31.53;;;18.80;;
9076;SDS011;4574;51.072;17.174;2023-12-14T11:38:41;26.23;;;15.93;;
9076;SDS011;4574;51.072;17.174;2023-12-14T11:41:10;23.73;;;15.23;;
9076;SDS011;4574;51.072;17.174;2023-12-14T11:43:39;22.87;;;14.10;;
9076;SDS011;4574;51.072;17.174;2023-12-14T11:46:09;21.70;;;13.33;;
9076;SDS011;4574;51.072;17.174;2023-12-14T11:48:39;28.70;;;16.17;;
9076;SDS011;4574;51.072;17.174;2023-12-14T11:51:08;25.53;;;15.43;;
9076;SDS011;4574;51.072;17.174;2023-12-14T11:53:38;41.80;;;18.37;;
9076;SDS011;4574;51.072;17.174;2023-12-14T11:56:07;30.00;;;16.30;;
9076;SDS011;4574;51.072;17.174;2023-12-14T11:58:36;28.70;;;15.33;;
9076;SDS011;4574;51.072;17.174;2023-12-14T12:01:12;28.57;;;14.10;;
9076;SDS011;4574;51.072;17.174;2023-12-14T12:03:43;37.50;;;16.37;;
9076;SDS011;4574;51.072;17.174;2023-12-14T12:06:21;34.70;;;17.27;;
9076;SDS011;4574;51.072;17.174;2023-12-14T12:08:51;23.20;;;13.00;;
9076;SDS011;4574;51.072;17.174;2023-12-14T12:11:21;29.33;;;13.63;;
9076;SDS011;4574;51.072;17.174;2023-12-14T12:13:52;36.90;;;16.93;;
9076;SDS011;4574;51.072;17.174;2023-12-14T12:16:22;32.77;;;15.83;;
9076;SDS011;4574;51.072;17.174;2023-12-14T12:18:53;29.63;;;17.97;;
9076;SDS011;4574;51.072;17.174;2023-12-14T12:21:22;36.20;;;20.60;;
9076;SDS011;4574;51.072;17.174;2023-12-14T12:23:51;52.77;;;22.73;;
9076;SDS011;4574;51.072;17.174;2023-12-14T12:26:20;38.03;;;19.60;;
9076;SDS011;4574;51.072;17.174;2023-12-14T12:28:48;33.13;;;17.97;;
9076;SDS011;4574;51.072;17.174;2023-12-14T12:31:17;30.10;;;17.33;;
9076;SDS011;4574;51.072;17.174;2023-12-14T12:33:46;24.83;;;15.17;;
9076;SDS011;4574;51.072;17.174;2023-12-14T12:36:16;25.93;;;15.53;;
9076;SDS011;4574;51.072;17.174;2023-12-14T12:38:45;30.30;;;16.97;;
9076;SDS011;4574;51.072;17.174;2023-12-14T12:41:13;24.40;;;14.67;;
9076;SDS011;4574;51.072;17.174;2023-12-14T12:43:43;21.27;;;13.63;;
9076;SDS011;4574;51.072;17.174;2023-12-14T12:46:17;18.13;;;13.13;;
9076;SDS011;4574;51.072;17.174;2023-12-14T12:48:45;20.97;;;13.33;;
9076;SDS011;4574;51.072;17.174;2023-12-14T12:51:15;19.57;;;13.50;;
9076;SDS011;4574;51.072;17.174;2023-12-14T12:53:44;28.93;;;16.07;;
9076;SDS011;4574;51.072;17.174;2023-12-14T12:56:13;33.03;;;17.07;;
9076;SDS011;4574;51.072;17.174;2023-12-14T12:58:42;35.03;;;18.63;;
9076;SDS011;4574;51.072;17.174;2023-12-14T13:01:10;29.37;;;16.90;;
9076;SDS011;4574;51.072;17.174;2023-12-14T13:03:39;27.43;;;16.60;;
9076;SDS011;4574;51.072;17.174;2023-12-14T13:06:07;29.63;;;18.00;;
9076;SDS011;4574;51.072;17.174;2023-12-14T13:08:37;40.33;;;21.43;;
9076;SDS011;4574;51.072;17.174;2023-12-14T13:11:06;42.53;;;21.53;;
9076;SDS011;4574;51.072;17.174;2023-12-14T13:13:35;33.13;;;19.57;;
9076;SDS011;4574;51.072;17.174;2023-12-14T13:16:05;27.63;;;16.77;;
9076;SDS011;4574;51.072;17.174;2023-12-14T13:18:33;25.40;;;14.17;;
9076;SDS011;4574;51.072;17.174;2023-12-14T13:21:02;19.17;;;13.00;;
9076;SDS011;4574;51.072;17.174;2023-12-14T13:23:31;19.80;;;13.17;;
9076;SDS011;4574;51.072;17.174;2023-12-14T13:26:01;20.50;;;13.53;;
9076;SDS011;4574;51.072;17.174;2023-12-14T13:28:30;22.23;;;13.57;;
9076;SDS011;4574;51.072;17.174;2023-12-14T13:30:58;22.73;;;14.77;;
9076;SDS011;4574;51.072;17.174;2023-12-14T13:33:27;27.03;;;14.30;;
9076;SDS011;4574;51.072;17.174;2023-12-14T13:35:55;26.73;;;16.40;;
9076;SDS011;4574;51.072;17.174;2023-12-14T13:38:23;29.53;;;15.97;;
9076;SDS011;4574;51.072;17.174;2023-12-14T13:40:52;25.50;;;14.43;;
9076;SDS011;4574;51.072;17.174;2023-12-14T13:43:22;24.90;;;15.33;;
9076;SDS011;4574;51.072;17.174;2023-12-14T13:45:50;30.63;;;16.27;;
9076;SDS011;4574;51.072;17.174;2023-12-14T13:48:42;28.93;;;15.63;;
9076;SDS011;4574;51.072;17.174;2023-12-14T13:51:11;37.47;;;19.97;;
9076;SDS011;4574;51.072;17.174;2023-12-14T13:53:41;38.27;;;20.90;;
9076;SDS011;4574;51.072;17.174;2023-12-14T13:56:10;35.87;;;20.63;;
9076;SDS011;4574;51.072;17.174;2023-12-14T13:58:41;25.07;;;15.03;;
9076;SDS011;4574;51.072;17.174;2023-12-14T14:01:09;23.37;;;14.20;;
9076;SDS011;4574;51.072;17.174;2023-12-14T14:03:38;21.37;;;13.43;;
9076;SDS011;4574;51.072;17.174;2023-12-14T14:06:10;25.43;;;13.40;;
9076;SDS011;4574;51.072;17.174;2023-12-14T14:08:39;23.37;;;13.70;;
9076;SDS011;4574;51.072;17.174;2023-12-14T14:11:07;39.23;;;21.17;;
9076;SDS011;4574;51.072;17.174;2023-12-14T14:13:36;37.23;;;19.97;;
9076;SDS011;4574;51.072;17.174;2023-12-14T14:16:08;40.20;;;20.57;;
9076;SDS011;4574;51.072;17.174;2023-12-14T14:18:36;38.77;;;21.90;;
9076;SDS011;4574;51.072;17.174;2023-12-14T14:21:05;44.63;;;23.57;;
9076;SDS011;4574;51.072;17.174;2023-12-14T14:23:34;31.40;;;18.00;;
9076;SDS011;4574;51.072;17.174;2023-12-14T14:26:03;35.60;;;19.83;;
9076;SDS011;4574;51.072;17.174;2023-12-14T14:28:33;30.90;;;19.43;;
9076;SDS011;4574;51.072;17.174;2023-12-14T14:31:01;39.83;;;20.20;;
9076;SDS011;4574;51.072;17.174;2023-12-14T14:33:32;30.03;;;16.27;;
9076;SDS011;4574;51.072;17.174;2023-12-14T14:36:00;27.77;;;15.87;;
9076;SDS011;4574;51.072;17.174;2023-12-14T14:38:32;33.90;;;19.33;;
9076;SDS011;4574;51.072;17.174;2023-12-14T14:41:00;37.40;;;19.80;;
9076;SDS011;4574;51.072;17.174;2023-12-14T14:43:29;39.43;;;20.83;;
9076;SDS011;4574;51.072;17.174;2023-12-14T14:45:57;35.10;;;18.70;;
9076;SDS011;4574;51.072;17.174;2023-12-14T14:48:26;40.13;;;19.47;;
9076;SDS011;4574;51.072;17.174;2023-12-14T14:50:55;38.67;;;20.40;;